Time;durP1;ratioP1;P1;durP2;ratioP2;P2;SDS_P1;SDS_P2;PMS_P1;PMS_P2;Temp;Humidity;BMP_temperature;BMP_pressure;BME280_temperature;BME280_humidity;BME280_pressure;Samples;Min_cycle;Max_cycle;Signal;HPM_P1;HPM_P2
2021/09/15 00:07:55;;;;;;;18.5;12.9;;;;;;;11.12;100;98769.86;;;;
2021/09/15 00:17:55;;;;;;;22.5;16.6;;;;;;;11.07;100;98772.7;;;;
2021/09/15 00:27:54;;;;;;;17;15.2;;;;;;;10.99;100;98768.83;;;;
2021/09/15 00:37:53;;;;;;;17.8;15.6;;;;;;;10.91;100;98758.76;;;;
2021/09/15 00:47:52;;;;;;;23.1;14;;;;;;;10.78;100;98778.48;;;;
2021/09/15 00:57:51;;;;;;;16.2;14.5;;;;;;;10.69;100;98777.58;;;;
2021/09/15 01:07:50;;;;;;;19.3;14.6;;;;;;;10.56;100;98779.22;;;;
2021/09/15 01:17:49;;;;;;;16.5;14.8;;;;;;;10.43;100;98773.84;;;;
2021/09/15 01:27:48;;;;;;;16.5;14.9;;;;;;;10.31;100;98774.35;;;;
2021/09/15 01:37:48;;;;;;;17.4;15;;;;;;;10.23;100;98758.91;;;;
2021/09/15 01:47:47;;;;;;;20.3;15.7;;;;;;;10.31;100;98750.11;;;;
2021/09/15 01:57:47;;;;;;;21.6;15.8;;;;;;;10.28;100;98752.6;;;;
2021/09/15 02:07:47;;;;;;;19.9;17.8;;;;;;;10.18;100;98764.39;;;;
2021/09/15 02:17:43;;;;;;;20.1;15.9;;;;;;;10.07;100;98769.15;;;;
2021/09/15 02:27:42;;;;;;;21.5;16.4;;;;;;;10.05;100;98752.5;;;;
2021/09/15 02:37:41;;;;;;;29.8;16;;;;;;;10.04;100;98755.48;;;;
2021/09/15 02:47:40;;;;;;;17.4;15.5;;;;;;;9.96;100;98761.59;;;;
2021/09/15 02:57:38;;;;;;;19.3;14.2;;;;;;;9.85;100;98760.98;;;;
2021/09/15 03:07:37;;;;;;;20.1;18;;;;;;;9.95;100;98766.17;;;;
2021/09/15 03:17:36;;;;;;;18.9;16.9;;;;;;;10.02;100;98765.77;;;;
2021/09/15 03:27:35;;;;;;;15.3;13.3;;;;;;;9.92;100;98752.5;;;;
2021/09/15 03:37:34;;;;;;;25.2;16.4;;;;;;;9.81;100;98751.09;;;;
2021/09/15 03:47:33;;;;;;;17.1;14.9;;;;;;;9.73;100;98755.27;;;;
2021/09/15 03:57:32;;;;;;;22.1;16.2;;;;;;;9.6;100;98761.44;;;;
2021/09/15 04:07:31;;;;;;;17.4;15.4;;;;;;;9.65;100;98752.48;;;;
2021/09/15 04:17:30;;;;;;;14.5;12.8;;;;;;;9.6;100;98770.31;;;;
2021/09/15 04:37:28;;;;;;;14.4;12.9;;;;;;;9.62;100;98770;;;;
2021/09/15 04:47:26;;;;;;;14.3;12.6;;;;;;;9.72;100;98764.44;;;;
2021/09/15 04:57:25;;;;;;;18;14.2;;;;;;;9.87;100;98753.39;;;;
2021/09/15 05:07:24;;;;;;;19.7;14.8;;;;;;;10.1;100;98765.05;;;;
2021/09/15 05:17:23;;;;;;;19.6;13.4;;;;;;;10.46;100;98774.05;;;;
2021/09/15 05:27:22;;;;;;;19.2;17.2;;;;;;;10.83;100;98770.26;;;;
2021/09/15 05:37:21;;;;;;;18.3;16;;;;;;;11.14;100;98756.08;;;;
2021/09/15 05:47:20;;;;;;;16.5;13.9;;;;;;;11.31;100;98758.9;;;;
2021/09/15 05:57:19;;;;;;;18.1;15.8;;;;;;;11.78;100;98760.13;;;;
2021/09/15 06:07:20;;;;;;;24.1;18.1;;;;;;;12.31;100;98766.22;;;;
2021/09/15 06:17:18;;;;;;;23.7;18.1;;;;;;;12.65;100;98762.78;;;;
2021/09/15 06:27:18;;;;;;;21.2;18.8;;;;;;;12.88;100;98761.52;;;;
2021/09/15 06:37:16;;;;;;;21.8;19.5;;;;;;;13.32;100;98755.02;;;;
2021/09/15 06:47:15;;;;;;;27.2;19.9;;;;;;;13.69;100;98742.65;;;;
2021/09/15 06:57:15;;;;;;;25.8;20.9;;;;;;;14.33;100;98751.47;;;;
2021/09/15 07:07:14;;;;;;;22.7;19.6;;;;;;;14.9;100;98727.3;;;;
2021/09/15 07:17:14;;;;;;;25.9;17.5;;;;;;;15.5;100;98736.84;;;;
2021/09/15 07:27:14;;;;;;;23.1;16.8;;;;;;;16.14;100;98750.61;;;;
2021/09/15 07:37:15;;;;;;;16.4;13.8;;;;;;;16.67;100;98749.59;;;;
2021/09/15 07:47:16;;;;;;;15.9;13.2;;;;;;;17.32;100;98733.97;;;;
2021/09/15 07:57:15;;;;;;;16.5;12.8;;;;;;;17.91;100;98740.2;;;;
2021/09/15 08:07:13;;;;;;;16.1;11.8;;;;;;;18.34;100;98738.51;;;;
2021/09/15 08:17:13;;;;;;;16;10.6;;;;;;;18.8;100;98740.38;;;;
2021/09/15 08:27:13;;;;;;;14.6;11.8;;;;;;;19.22;100;98745.13;;;;
2021/09/15 08:37:13;;;;;;;17.9;13.5;;;;;;;19.53;100;98742.25;;;;
2021/09/15 08:47:13;;;;;;;16.2;10.5;;;;;;;19.86;100;98752.59;;;;
2021/09/15 08:57:14;;;;;;;16.9;11;;;;;;;20.08;100;98730.72;;;;
2021/09/15 09:07:17;;;;;;;13.2;10;;;;;;;20.53;100;98735.34;;;;
2021/09/15 09:17:20;;;;;;;15.4;10.9;;;;;;;21;100;98718.35;;;;
2021/09/15 09:27:15;;;;;;;19;13.6;;;;;;;21.12;100;98709.13;;;;
2021/09/15 09:37:16;;;;;;;11.9;10.7;;;;;;;21.22;100;98700.23;;;;
2021/09/15 09:47:25;;;;;;;15.9;12.1;;;;;;;21.36;100;98689.42;;;;
2021/09/15 09:57:16;;;;;;;16.5;11.3;;;;;;;21.78;100;98678.08;;;;
2021/09/15 10:07:16;;;;;;;14.7;10.7;;;;;;;21.95;100;98669.23;;;;
2021/09/15 10:17:17;;;;;;;13.7;9.3;;;;;;;22.4;100;98672.66;;;;
2021/09/15 10:27:17;;;;;;;9.8;8;;;;;;;22.46;100;98674.66;;;;
2021/09/15 10:37:18;;;;;;;15.1;7.4;;;;;;;23.05;100;98662.39;;;;
2021/09/15 10:47:19;;;;;;;11.4;8.2;;;;;;;23.56;100;98661.36;;;;
2021/09/15 10:57:19;;;;;;;8.9;6.4;;;;;;;23.23;100;98653.4;;;;
2021/09/15 11:07:20;;;;;;;13.5;6.5;;;;;;;23.43;100;98641.67;;;;
2021/09/15 11:17:21;;;;;;;16.8;8.1;;;;;;;23.76;100;98639.74;;;;
2021/09/15 11:27:21;;;;;;;12.3;9.7;;;;;;;23.67;100;98637.4;;;;
2021/09/15 11:37:22;;;;;;;8.8;7;;;;;;;24.15;100;98621.26;;;;
2021/09/15 11:47:23;;;;;;;12.4;8.8;;;;;;;24.49;100;98619.59;;;;
2021/09/15 11:57:31;;;;;;;13.2;8.2;;;;;;;24.46;100;98614.88;;;;
2021/09/15 12:07:25;;;;;;;9.9;7;;;;;;;24.36;100;98606.64;;;;
2021/09/15 12:17:26;;;;;;;7.4;5.8;;;;;;;24.68;100;98596.27;;;;
2021/09/15 12:27:31;;;;;;;11.8;7.1;;;;;;;24.82;100;98584.38;;;;
2021/09/15 12:37:30;;;;;;;9.4;7.2;;;;;;;24.86;100;98572.19;;;;
2021/09/15 12:47:35;;;;;;;13.5;7.5;;;;;;;24.68;100;98554.16;;;;
2021/09/15 12:57:33;;;;;;;9.4;6.9;;;;;;;24.9;100;98556.41;;;;
2021/09/15 13:07:35;;;;;;;11.7;8;;;;;;;25.06;100;98533.08;;;;
2021/09/15 13:17:31;;;;;;;12.4;8.1;;;;;;;25.18;100;98521.55;;;;
2021/09/15 13:27:32;;;;;;;10.9;7.6;;;;;;;25.38;100;98506.01;;;;
2021/09/15 13:37:33;;;;;;;8.8;6.2;;;;;;;25.35;100;98507.62;;;;
2021/09/15 13:47:34;;;;;;;10.3;5.7;;;;;;;25.23;100;98485.27;;;;
2021/09/15 13:57:35;;;;;;;9.3;7;;;;;;;25.09;100;98486.17;;;;
2021/09/15 14:07:36;;;;;;;8.6;5.8;;;;;;;24.86;100;98470.17;;;;
2021/09/15 14:17:37;;;;;;;7.6;6.1;;;;;;;25.12;100;98463.29;;;;
2021/09/15 14:27:38;;;;;;;11;5.6;;;;;;;25.06;100;98453.86;;;;
2021/09/15 14:37:39;;;;;;;7.9;5.1;;;;;;;24.83;100;98454.45;;;;
2021/09/15 14:47:40;;;;;;;9.2;6;;;;;;;24.82;100;98444.57;;;;
2021/09/15 14:57:41;;;;;;;9.7;6.5;;;;;;;24.5;100;98433;;;;
2021/09/15 15:07:42;;;;;;;9.8;6.1;;;;;;;24.93;100;98445.31;;;;
2021/09/15 15:17:43;;;;;;;8.9;5.7;;;;;;;25.91;100;98440.03;;;;
2021/09/15 15:27:44;;;;;;;9.3;6.7;;;;;;;26.36;100;98450.93;;;;
2021/09/15 15:37:45;;;;;;;15.4;6.6;;;;;;;25.82;100;98431.47;;;;
2021/09/15 15:47:46;;;;;;;12.6;5.3;;;;;;;24.9;100;98424.06;;;;
2021/09/15 15:57:48;;;;;;;8.9;6.9;;;;;;;24.99;100;98421.62;;;;
2021/09/15 16:07:49;;;;;;;9.3;6.6;;;;;;;24.8;100;98416.64;;;;
2021/09/15 16:17:50;;;;;;;10;7.1;;;;;;;25.07;100;98422.34;;;;
2021/09/15 16:27:51;;;;;;;12.7;6.6;;;;;;;25.07;100;98416.04;;;;
2021/09/15 16:37:52;;;;;;;10.5;7.8;;;;;;;24.18;100;98421.38;;;;
2021/09/15 16:47:52;;;;;;;10.9;8.2;;;;;;;23.26;100;98402.36;;;;
2021/09/15 16:57:53;;;;;;;13.4;8.2;;;;;;;22.43;100;98397.25;;;;
2021/09/15 17:07:54;;;;;;;15.2;9.7;;;;;;;21.74;100;98393.88;;;;
2021/09/15 17:17:55;;;;;;;15.8;11.1;;;;;;;21.24;100;98401.08;;;;
2021/09/15 17:27:55;;;;;;;13.7;12;;;;;;;20.88;100;98406.28;;;;
2021/09/15 17:37:55;;;;;;;18.5;12.6;;;;;;;20.35;100;98402.27;;;;
2021/09/15 17:47:55;;;;;;;17.9;14.1;;;;;;;20.09;100;98401.21;;;;
2021/09/15 17:57:56;;;;;;;20.8;16;;;;;;;19.77;100;98415.66;;;;
2021/09/15 18:07:56;;;;;;;21.8;16;;;;;;;19.39;100;98411.23;;;;
2021/09/15 18:17:56;;;;;;;20.5;15.9;;;;;;;19.03;100;98402.52;;;;
2021/09/15 18:27:56;;;;;;;18.3;16.6;;;;;;;18.7;100;98391.47;;;;
2021/09/15 18:37:57;;;;;;;28.1;23.2;;;;;;;18.34;100;98386.52;;;;
2021/09/15 18:47:56;;;;;;;43;33.4;;;;;;;18;100;98372.67;;;;
2021/09/15 18:57:56;;;;;;;57;46.3;;;;;;;17.74;100;98377.98;;;;
2021/09/15 19:07:56;;;;;;;36.9;28.6;;;;;;;17.59;100;98381.59;;;;
2021/09/15 19:17:56;;;;;;;32.3;23.7;;;;;;;17.44;100;98376.95;;;;
2021/09/15 19:27:56;;;;;;;32;25.6;;;;;;;17.21;100;98365.17;;;;
2021/09/15 19:37:56;;;;;;;32;23.8;;;;;;;17.06;100;98378.47;;;;
2021/09/15 19:47:56;;;;;;;27.3;24.4;;;;;;;16.92;100;98371.91;;;;
2021/09/15 19:57:55;;;;;;;29.1;22.5;;;;;;;16.7;100;98359.73;;;;
2021/09/15 20:07:57;;;;;;;27.6;21.7;;;;;;;16.59;100;98355.98;;;;
2021/09/15 20:17:56;;;;;;;24.2;21.7;;;;;;;16.37;100;98348.41;;;;
2021/09/15 20:27:55;;;;;;;23.4;21;;;;;;;16.3;100;98349.02;;;;
2021/09/15 20:37:54;;;;;;;28.6;23.3;;;;;;;16.18;100;98340.92;;;;
2021/09/15 20:47:54;;;;;;;25.4;21.5;;;;;;;16;100;98332.31;;;;
2021/09/15 20:57:54;;;;;;;27;20.1;;;;;;;15.88;100;98332.39;;;;
2021/09/15 21:07:53;;;;;;;23.1;20.7;;;;;;;15.75;100;98330.88;;;;
2021/09/15 21:17:53;;;;;;;31.5;21.8;;;;;;;15.6;100;98332.41;;;;
2021/09/15 21:27:53;;;;;;;25.9;22.6;;;;;;;15.5;100;98332.12;;;;
2021/09/15 21:37:55;;;;;;;25.6;22.9;;;;;;;15.43;100;98319.1;;;;
2021/09/15 21:47:52;;;;;;;27.7;24.6;;;;;;;15.45;100;98322.25;;;;
2021/09/15 21:57:51;;;;;;;29.7;22.9;;;;;;;15.46;100;98317.61;;;;
2021/09/15 22:07:51;;;;;;;26.3;23.5;;;;;;;15.49;100;98319.66;;;;
2021/09/15 22:17:51;;;;;;;27.8;21.9;;;;;;;15.58;100;98315.66;;;;
2021/09/15 22:27:51;;;;;;;27.6;22.6;;;;;;;15.66;100;98318.56;;;;
2021/09/15 22:37:52;;;;;;;23.5;20.7;;;;;;;15.7;100;98314.02;;;;
2021/09/15 22:47:50;;;;;;;27.3;23;;;;;;;15.66;100;98313.13;;;;
2021/09/15 22:57:49;;;;;;;32;22.5;;;;;;;15.55;100;98302.77;;;;
2021/09/15 23:07:49;;;;;;;28.4;25;;;;;;;15.48;100;98293.63;;;;
2021/09/15 23:17:49;;;;;;;31.8;24.5;;;;;;;15.43;100;98297.38;;;;
2021/09/15 23:27:48;;;;;;;28.1;22.4;;;;;;;15.38;100;98294.09;;;;
2021/09/15 23:37:49;;;;;;;32;24.7;;;;;;;15.32;100;98295.48;;;;
2021/09/15 23:47:48;;;;;;;30.9;25.6;;;;;;;15.28;100;98279.09;;;;
2021/09/15 23:57:47;;;;;;;31.9;27.6;;;;;;;15.34;100;98279.66;;;;
